createdAt,value
2019-05-02T00:07:53.836Z,4.90
2019-05-02T00:13:02.390Z,5.60
2019-05-02T00:15:33.130Z,5.00
2019-05-02T00:23:47.526Z,4.17
2019-05-02T00:26:16.758Z,5.20
2019-05-02T00:28:48.131Z,4.63
2019-05-02T00:33:53.594Z,4.83
2019-05-02T00:36:23.191Z,5.03
2019-05-02T00:38:52.768Z,5.10
2019-05-02T00:43:56.524Z,5.10
2019-05-02T00:46:25.762Z,5.30
2019-05-02T00:48:59.908Z,4.60
2019-05-02T00:51:29.779Z,4.37
2019-05-02T00:53:58.992Z,4.77
2019-05-02T00:56:28.230Z,5.03
2019-05-02T00:58:57.688Z,4.60
2019-05-02T01:01:45.859Z,4.87
2019-05-02T01:09:46.770Z,4.43
2019-05-02T01:12:26.353Z,4.70
2019-05-02T01:14:48.076Z,4.80
2019-05-02T01:17:17.322Z,4.60
2019-05-02T01:19:47.141Z,4.47
2019-05-02T01:22:18.072Z,4.90
2019-05-02T01:24:47.566Z,4.77
2019-05-02T01:27:41.018Z,4.63
2019-05-02T01:33:36.741Z,4.63
2019-05-02T01:36:44.733Z,5.13
2019-05-02T01:39:13.975Z,4.57
2019-05-02T01:41:43.159Z,5.10
2019-05-02T01:44:12.395Z,4.60
2019-05-02T01:46:41.908Z,4.90
2019-05-02T01:49:11.142Z,4.17
2019-05-02T01:51:41.995Z,4.63
2019-05-02T01:54:11.825Z,4.10
2019-05-02T01:56:41.006Z,4.43
2019-05-02T01:59:10.239Z,4.30
2019-05-02T02:01:39.430Z,4.47
2019-05-02T02:04:08.603Z,4.20
2019-05-02T02:06:38.880Z,5.00
2019-05-02T02:09:48.217Z,4.50
2019-05-02T02:12:17.399Z,4.07
2019-05-02T02:14:48.150Z,4.40
2019-05-02T02:17:17.545Z,4.67
2019-05-02T02:22:59.012Z,4.30
2019-05-02T02:31:59.421Z,4.87
2019-05-02T02:34:32.087Z,4.10
2019-05-02T02:37:05.509Z,4.40
2019-05-02T02:39:31.496Z,4.60
2019-05-02T02:42:01.413Z,4.10
2019-05-02T02:44:50.041Z,4.43
2019-05-02T02:47:21.085Z,4.10
2019-05-02T02:49:56.029Z,4.70
2019-05-02T02:52:21.176Z,3.97
2019-05-02T02:54:50.747Z,4.10
2019-05-02T02:57:26.502Z,4.23
2019-05-02T02:59:51.684Z,4.37
2019-05-02T03:02:20.920Z,3.97
2019-05-02T03:04:50.100Z,3.90
2019-05-02T03:07:25.757Z,4.00
2019-05-02T03:09:50.358Z,3.97
2019-05-02T03:20:26.811Z,4.37
2019-05-02T03:22:56.042Z,3.70
2019-05-02T03:25:49.154Z,3.70
2019-05-02T03:27:56.802Z,4.03
2019-05-02T03:30:37.254Z,4.10
2019-05-02T03:33:05.805Z,3.80
2019-05-02T03:35:42.953Z,4.13
2019-05-02T03:37:59.534Z,4.00
2019-05-02T03:41:13.451Z,4.07
2019-05-02T03:43:39.510Z,4.33
2019-05-02T03:46:13.647Z,3.70
2019-05-02T03:48:40.244Z,4.17
2019-05-02T03:51:19.646Z,4.50
2019-05-02T03:53:40.423Z,4.20
2019-05-02T03:56:12.071Z,3.97
2019-05-02T03:58:40.722Z,3.63
2019-05-02T04:01:34.680Z,3.93
2019-05-02T04:04:00.220Z,4.00
2019-05-02T04:10:13.537Z,3.90
2019-05-02T04:16:28.208Z,4.03
2019-05-02T04:19:36.974Z,4.63
2019-05-02T04:22:08.462Z,4.40
2019-05-02T04:24:37.247Z,3.70
2019-05-02T04:27:06.487Z,3.80
2019-05-02T04:30:15.052Z,4.27
2019-05-02T04:32:49.907Z,3.80
2019-05-02T04:35:15.318Z,4.10
2019-05-02T04:37:44.558Z,3.80
2019-05-02T04:40:13.850Z,4.13
2019-05-02T04:42:43.432Z,3.90
2019-05-02T04:45:24.800Z,4.30
2019-05-02T04:47:57.492Z,3.97
2019-05-02T04:50:24.151Z,4.47
2019-05-02T04:52:52.485Z,4.00
2019-05-02T04:55:26.248Z,3.47
2019-05-02T04:57:50.849Z,4.20
2019-05-02T05:01:01.859Z,4.40
2019-05-02T05:03:29.455Z,3.97
2019-05-02T05:06:06.813Z,4.23
2019-05-02T05:09:10.310Z,4.20
2019-05-02T05:11:39.943Z,4.07
2019-05-02T05:14:09.974Z,4.33
2019-05-02T05:16:40.437Z,3.97
2019-05-02T05:19:32.639Z,4.10
2019-05-02T05:30:18.734Z,3.90
2019-05-02T05:32:47.961Z,4.43
2019-05-02T05:35:17.705Z,4.17
2019-05-02T05:37:52.779Z,3.80
2019-05-02T05:40:22.707Z,4.10
2019-05-02T05:42:50.210Z,4.17
2019-05-02T05:45:19.452Z,4.00
2019-05-02T05:47:52.499Z,4.20
2019-05-02T05:52:54.815Z,4.20
2019-05-02T05:55:24.575Z,4.27
2019-05-02T05:58:03.124Z,4.03
2019-05-02T06:00:27.819Z,4.20
2019-05-02T06:03:10.144Z,4.27
2019-05-02T06:05:33.310Z,4.60
2019-05-02T06:07:59.509Z,4.20
2019-05-02T06:10:28.742Z,3.90
2019-05-02T06:12:58.252Z,4.20
2019-05-02T06:15:27.494Z,4.20
2019-05-02T06:17:59.942Z,4.27
2019-05-02T06:20:30.666Z,4.33
2019-05-02T06:23:00.075Z,3.87
2019-05-02T06:25:34.611Z,4.07
2019-05-02T06:28:05.199Z,3.60
2019-05-02T06:30:32.472Z,4.00
2019-05-02T06:33:01.614Z,4.23
2019-05-02T06:35:31.135Z,3.67
2019-05-02T06:38:00.642Z,4.77
2019-05-02T06:40:29.891Z,3.80
2019-05-02T06:42:59.083Z,3.77
2019-05-02T06:45:32.212Z,3.93
2019-05-02T06:48:01.171Z,3.60
2019-05-02T06:50:33.274Z,3.37
2019-05-02T06:53:04.353Z,3.57
2019-05-02T06:55:36.224Z,3.67
2019-05-02T06:58:07.751Z,3.87
2019-05-02T07:00:38.425Z,4.30
2019-05-02T07:03:10.210Z,3.63
2019-05-02T07:05:36.493Z,3.47
2019-05-02T07:08:06.567Z,4.10
2019-05-02T07:10:44.421Z,3.60
2019-05-02T07:13:10.661Z,3.97
2019-05-02T07:15:58.139Z,4.03
2019-05-02T07:21:35.922Z,3.67
2019-05-02T07:24:05.224Z,4.27
2019-05-02T07:26:34.462Z,4.03
2019-05-02T07:29:23.177Z,4.80
2019-05-02T07:31:53.636Z,4.13
2019-05-02T07:34:23.313Z,4.17
2019-05-02T07:36:52.564Z,4.30
2019-05-02T07:39:22.043Z,4.10
2019-05-02T07:41:51.649Z,4.40
2019-05-02T07:44:20.836Z,3.87
2019-05-02T07:46:51.905Z,4.00
2019-05-02T07:49:21.046Z,4.67
2019-05-02T07:51:52.244Z,4.57
2019-05-02T07:54:24.831Z,4.50
2019-05-02T07:56:53.307Z,5.07
2019-05-02T07:59:23.630Z,4.93
2019-05-02T08:01:54.141Z,5.20
2019-05-02T08:04:23.840Z,5.57
2019-05-02T08:06:53.090Z,6.03
2019-05-02T08:09:44.068Z,5.20
2019-05-02T08:14:48.842Z,5.73
2019-05-02T08:17:19.286Z,4.83
2019-05-02T08:19:49.851Z,5.43
2019-05-02T08:22:19.055Z,5.07
2019-05-02T08:24:48.303Z,5.07
2019-05-02T08:27:55.868Z,5.43
2019-05-02T08:30:44.092Z,5.00
2019-05-02T08:33:13.711Z,5.07
2019-05-02T08:35:42.914Z,5.90
2019-05-02T08:38:12.686Z,5.20
2019-05-02T08:40:47.824Z,5.37
2019-05-02T08:43:14.085Z,5.63
2019-05-02T08:45:43.277Z,6.03
2019-05-02T08:48:12.782Z,5.87
2019-05-02T08:51:01.473Z,5.63
2019-05-02T08:53:30.642Z,5.63
2019-05-02T08:55:59.935Z,5.63
2019-05-02T08:58:29.126Z,6.13
2019-05-02T09:00:58.375Z,5.33
2019-05-02T09:03:27.582Z,5.97
2019-05-02T09:06:05.621Z,5.90
2019-05-02T09:08:28.475Z,6.20
2019-05-02T09:10:57.669Z,5.50
2019-05-02T09:13:29.556Z,6.67
2019-05-02T09:15:58.282Z,5.90
2019-05-02T09:18:35.280Z,5.80
2019-05-02T09:20:59.762Z,5.27
2019-05-02T09:23:33.270Z,5.43
2019-05-02T09:25:59.937Z,8.70
2019-05-02T09:28:29.536Z,6.57
2019-05-02T09:31:07.050Z,5.97
2019-05-02T09:33:56.940Z,6.50
2019-05-02T09:36:26.509Z,5.70
2019-05-02T09:39:14.830Z,6.37
2019-05-02T09:41:44.311Z,5.70
2019-05-02T09:44:18.455Z,5.50
2019-05-02T09:46:47.491Z,6.37
2019-05-02T09:49:16.550Z,6.57
2019-05-02T09:51:50.343Z,5.50
2019-05-02T09:54:17.303Z,5.43
2019-05-02T09:56:46.546Z,5.70
2019-05-02T10:01:52.733Z,5.77
2019-05-02T10:04:23.333Z,6.43
2019-05-02T10:06:52.679Z,6.27
2019-05-02T10:09:25.740Z,6.03
2019-05-02T10:11:53.273Z,6.97
2019-05-02T10:14:22.812Z,5.80
2019-05-02T10:16:57.611Z,6.10
2019-05-02T10:19:26.128Z,6.03
2019-05-02T10:24:51.848Z,6.00
2019-05-02T10:27:21.675Z,6.00
2019-05-02T10:29:52.538Z,6.00
2019-05-02T10:32:23.159Z,6.83
2019-05-02T10:34:55.843Z,5.50
2019-05-02T10:37:23.295Z,5.37
2019-05-02T10:39:55.654Z,5.33
2019-05-02T10:42:23.464Z,5.27
2019-05-02T10:44:52.646Z,6.13
2019-05-02T10:47:22.244Z,6.10
2019-05-02T10:52:57.035Z,5.60
2019-05-02T10:55:26.220Z,5.73
2019-05-02T10:57:55.515Z,6.23
2019-05-02T11:01:04.087Z,6.03
2019-05-02T11:09:26.299Z,5.07
2019-05-02T11:11:55.110Z,4.53
2019-05-02T11:14:43.553Z,4.70
2019-05-02T11:17:32.380Z,4.93
2019-05-02T11:20:22.435Z,4.63
2019-05-02T11:25:39.837Z,4.87
2019-05-02T11:28:09.024Z,4.90
2019-05-02T11:30:38.924Z,4.47
2019-05-02T11:33:08.115Z,4.70
2019-05-02T11:35:41.617Z,5.60
2019-05-02T11:38:08.703Z,4.87
2019-05-02T11:40:39.663Z,4.80
2019-05-02T11:43:08.865Z,4.80
2019-05-02T11:45:38.382Z,4.40
2019-05-02T11:48:09.235Z,4.33
2019-05-02T11:50:38.647Z,5.87
2019-05-02T11:53:22.318Z,4.97
2019-05-02T11:55:41.306Z,4.90
2019-05-02T11:58:12.428Z,5.20
2019-05-02T12:00:48.028Z,5.43
2019-05-02T12:03:35.447Z,4.93
2019-05-02T12:06:06.481Z,5.37
2019-05-02T12:08:33.062Z,5.63
2019-05-02T12:11:03.887Z,6.00
2019-05-02T12:13:33.283Z,5.27
2019-05-02T12:16:03.970Z,4.90
2019-05-02T12:18:33.506Z,4.43
2019-05-02T12:21:02.768Z,4.47
2019-05-02T12:23:32.151Z,4.40
2019-05-02T12:26:02.761Z,4.57
2019-05-02T12:28:32.711Z,4.03
2019-05-02T12:31:02.705Z,3.97
2019-05-02T12:33:36.454Z,4.10
2019-05-02T12:36:08.549Z,3.63
2019-05-02T12:38:38.385Z,4.20
2019-05-02T12:41:19.619Z,4.17
2019-05-02T12:43:38.522Z,4.20
2019-05-02T12:46:07.760Z,4.17
2019-05-02T12:48:37.232Z,3.63
2019-05-02T12:51:06.751Z,3.27
2019-05-02T12:53:35.943Z,3.37
2019-05-02T12:56:05.467Z,3.30
2019-05-02T12:58:34.685Z,3.70
2019-05-02T13:01:04.299Z,2.90
2019-05-02T13:03:44.453Z,3.23
2019-05-02T13:06:13.699Z,3.50
2019-05-02T13:08:48.938Z,4.17
2019-05-02T13:11:37.031Z,4.10
2019-05-02T13:14:04.024Z,4.27
2019-05-02T13:16:33.639Z,3.90
2019-05-02T13:19:06.218Z,4.13
2019-05-02T13:21:43.062Z,3.43
2019-05-02T13:24:19.319Z,3.27
2019-05-02T13:26:52.019Z,3.20
2019-05-02T13:29:19.465Z,3.00
2019-05-02T13:31:54.831Z,2.90
2019-05-02T13:34:43.664Z,2.90
2019-05-02T13:37:14.615Z,2.70
2019-05-02T13:39:57.391Z,2.53
2019-05-02T13:42:26.637Z,2.90
2019-05-02T13:45:02.462Z,2.93
2019-05-02T13:47:32.576Z,3.17
2019-05-02T13:50:03.882Z,2.83
2019-05-02T13:52:33.285Z,2.70
2019-05-02T13:55:03.513Z,2.87
2019-05-02T13:57:35.043Z,3.03
2019-05-02T14:00:04.435Z,2.87
2019-05-02T14:02:36.387Z,2.90
2019-05-02T14:05:06.930Z,2.47
2019-05-02T14:07:36.134Z,2.73
2019-05-02T14:10:12.171Z,2.83
2019-05-02T14:12:47.318Z,3.20
2019-05-02T14:15:18.544Z,2.77
2019-05-02T14:17:47.727Z,2.30
2019-05-02T14:20:22.164Z,2.40
2019-05-02T14:22:52.540Z,2.13
2019-05-02T14:25:22.408Z,2.17
2019-05-02T14:27:55.526Z,1.73
2019-05-02T14:30:36.213Z,2.10
2019-05-02T14:32:56.291Z,1.83
2019-05-02T14:35:28.481Z,1.93
2019-05-02T14:38:16.417Z,2.30
2019-05-02T14:40:52.489Z,2.07
2019-05-02T14:43:44.558Z,2.17
2019-05-02T14:46:10.221Z,2.50
2019-05-02T14:48:45.346Z,2.33
2019-05-02T14:51:16.769Z,2.83
2019-05-02T14:53:44.050Z,2.80
2019-05-02T14:56:24.842Z,2.70
2019-05-02T14:58:54.077Z,2.43
2019-05-02T15:03:58.431Z,2.37
2019-05-02T15:06:31.584Z,2.43
2019-05-02T15:08:59.663Z,2.70
2019-05-02T15:11:32.303Z,2.57
2019-05-02T15:13:59.799Z,2.63
2019-05-02T15:16:39.578Z,3.17
2019-05-02T15:19:01.996Z,2.80
2019-05-02T15:21:42.316Z,2.77
2019-05-02T15:24:11.987Z,2.70
2019-05-02T15:26:41.850Z,3.03
2019-05-02T15:29:18.835Z,3.27
2019-05-02T15:31:47.461Z,3.00
2019-05-02T15:34:23.308Z,3.13
2019-05-02T15:36:53.149Z,3.77
2019-05-02T15:41:53.307Z,3.10
2019-05-02T15:44:27.010Z,3.10
2019-05-02T15:46:58.448Z,3.23
2019-05-02T15:49:27.186Z,3.00
2019-05-02T15:51:57.195Z,3.53
2019-05-02T15:54:26.834Z,2.90
2019-05-02T15:57:00.950Z,3.20
2019-05-02T15:59:37.439Z,3.17
2019-05-02T16:02:09.767Z,3.10
2019-05-02T16:04:41.728Z,3.37
2019-05-02T16:07:12.131Z,3.20
2019-05-02T16:09:41.935Z,3.83
2019-05-02T16:12:12.283Z,3.10
2019-05-02T16:14:42.473Z,3.37
2019-05-02T16:17:12.568Z,3.53
2019-05-02T16:19:47.141Z,3.33
2019-05-02T16:22:17.760Z,3.50
2019-05-02T16:24:49.118Z,3.55
2019-05-02T16:27:21.969Z,4.70
2019-05-02T16:29:49.236Z,3.92
2019-05-02T16:32:37.821Z,4.53
2019-05-02T16:35:13.559Z,3.83
2019-05-02T16:37:38.794Z,3.70
2019-05-02T16:40:09.405Z,4.17
2019-05-02T16:42:41.694Z,4.85
2019-05-02T16:45:11.823Z,4.58
2019-05-02T16:47:42.325Z,4.78
2019-05-02T16:50:12.420Z,4.65
2019-05-02T16:52:43.630Z,4.65
2019-05-02T16:55:20.706Z,4.10
2019-05-02T16:57:47.354Z,3.95
2019-05-02T17:00:22.687Z,4.73
2019-05-02T17:02:52.541Z,5.63
2019-05-02T17:05:22.128Z,4.70
2019-05-02T17:08:16.742Z,5.20
2019-05-02T17:10:53.615Z,6.00
2019-05-02T17:13:19.329Z,5.93
2019-05-02T17:15:48.515Z,4.80
2019-05-02T17:18:18.341Z,4.47
2019-05-02T17:20:53.559Z,4.80
2019-05-02T17:23:18.867Z,5.13
2019-05-02T17:25:48.321Z,4.47
2019-05-02T17:28:17.570Z,5.40
2019-05-02T17:30:47.122Z,5.67
2019-05-02T17:33:16.658Z,5.80
2019-05-02T17:35:49.957Z,6.10
2019-05-02T17:38:19.125Z,5.30
2019-05-02T17:40:47.773Z,6.40
2019-05-02T17:43:17.008Z,5.20
2019-05-02T17:45:47.954Z,5.30
2019-05-02T17:48:17.865Z,6.50
2019-05-02T17:51:09.351Z,4.80
2019-05-02T17:53:41.095Z,6.53
2019-05-02T17:56:13.054Z,5.60
2019-05-02T17:58:47.317Z,5.80
2019-05-02T18:01:17.039Z,5.90
2019-05-02T18:03:46.930Z,4.97
2019-05-02T18:06:17.364Z,5.40
2019-05-02T18:08:51.670Z,5.20
2019-05-02T18:11:17.946Z,5.57
2019-05-02T18:13:48.067Z,5.17
2019-05-02T18:16:17.933Z,4.93
2019-05-02T18:18:47.128Z,5.43
2019-05-02T18:21:17.248Z,5.93
2019-05-02T18:23:47.907Z,5.00
2019-05-02T18:26:17.171Z,5.50
2019-05-02T18:28:49.270Z,4.90
2019-05-02T18:31:18.008Z,5.17
2019-05-02T18:33:47.558Z,4.70
2019-05-02T18:36:17.390Z,4.83
2019-05-02T18:38:54.295Z,4.43
2019-05-02T18:41:18.722Z,5.20
2019-05-02T18:43:48.197Z,4.30
2019-05-02T18:46:19.831Z,4.63
2019-05-02T18:48:49.242Z,4.47
2019-05-02T18:51:19.341Z,4.57
2019-05-02T18:53:48.525Z,4.33
2019-05-02T18:56:17.783Z,4.73
2019-05-02T18:58:47.314Z,4.23
2019-05-02T19:01:18.474Z,4.93
2019-05-02T19:03:54.361Z,4.90
2019-05-02T19:06:19.749Z,4.93
2019-05-02T19:08:52.251Z,4.37
2019-05-02T19:11:22.113Z,4.53
2019-05-02T19:13:52.709Z,3.97
2019-05-02T19:16:24.929Z,4.80
2019-05-02T19:18:57.264Z,4.40
2019-05-02T19:21:31.943Z,4.63
2019-05-02T19:23:59.495Z,4.67
2019-05-02T19:26:30.135Z,4.77
2019-05-02T19:29:17.190Z,4.60
2019-05-02T19:31:47.766Z,5.07
2019-05-02T19:34:22.947Z,4.53
2019-05-02T19:36:48.706Z,4.90
2019-05-02T19:39:18.586Z,4.60
2019-05-02T19:41:48.706Z,5.13
2019-05-02T19:44:22.947Z,5.53
2019-05-02T19:46:49.236Z,4.73
2019-05-02T19:49:18.422Z,5.30
2019-05-02T19:51:50.364Z,5.03
2019-05-02T19:54:19.134Z,4.80
2019-05-02T19:56:49.054Z,5.67
2019-05-02T19:59:24.631Z,5.40
2019-05-02T20:01:49.378Z,4.93
2019-05-02T20:04:18.557Z,4.97
2019-05-02T20:06:47.789Z,5.30
2019-05-02T20:09:17.355Z,4.93
2019-05-02T20:11:46.866Z,5.93
2019-05-02T20:14:16.270Z,5.27
2019-05-02T20:16:52.862Z,5.53
2019-05-02T20:19:25.713Z,4.93
2019-05-02T20:22:12.137Z,5.40
2019-05-02T20:25:06.121Z,5.67
2019-05-02T20:27:35.638Z,5.77
2019-05-02T20:30:06.331Z,5.63
2019-05-02T20:32:35.849Z,6.33
2019-05-02T20:35:05.268Z,6.13
2019-05-02T20:37:34.447Z,6.00
2019-05-02T20:40:04.065Z,5.63
2019-05-02T20:42:34.000Z,5.57
2019-05-02T20:45:03.424Z,5.43
2019-05-02T20:47:32.662Z,6.23
2019-05-02T20:50:02.681Z,6.30
2019-05-02T20:52:32.535Z,6.40
2019-05-02T20:55:01.929Z,5.97
2019-05-02T20:57:31.773Z,6.67
2019-05-02T21:00:01.909Z,6.83
2019-05-02T21:02:31.853Z,6.13
2019-05-02T21:05:02.764Z,7.20
2019-05-02T21:08:03.436Z,7.40
2019-05-02T21:10:37.229Z,6.67
2019-05-02T21:13:06.822Z,7.97
2019-05-02T21:15:36.721Z,7.93
2019-05-02T21:18:06.076Z,7.87
2019-05-02T21:20:35.547Z,9.07
2019-05-02T21:23:04.786Z,8.40
2019-05-02T21:25:34.549Z,8.30
2019-05-02T21:28:03.983Z,9.27
2019-05-02T21:30:33.434Z,6.87
2019-05-02T21:33:03.001Z,6.03
2019-05-02T21:35:32.222Z,5.60
2019-05-02T21:38:01.852Z,5.10
2019-05-02T21:40:32.722Z,4.23
2019-05-02T21:43:02.454Z,4.53
2019-05-02T21:45:31.807Z,4.20
2019-05-02T21:48:02.319Z,4.20
2019-05-02T21:50:54.446Z,4.30
2019-05-02T21:53:32.615Z,3.57
2019-05-02T21:56:07.300Z,4.57
2019-05-02T21:58:36.538Z,3.70
2019-05-02T22:03:46.770Z,3.87
2019-05-02T22:06:16.010Z,3.50
2019-05-02T22:08:45.213Z,3.50
2019-05-02T22:11:14.729Z,3.30
2019-05-02T22:13:44.068Z,3.17
2019-05-02T22:16:13.251Z,3.40
2019-05-02T22:18:42.823Z,2.93
2019-05-02T22:21:12.342Z,2.50
2019-05-02T22:23:42.502Z,2.73
2019-05-02T22:26:12.725Z,2.80
2019-05-02T22:28:42.135Z,2.50
2019-05-02T22:31:12.366Z,2.90
2019-05-02T22:33:44.468Z,2.80
2019-05-02T22:36:12.661Z,2.70
2019-05-02T22:38:50.499Z,3.00
2019-05-02T22:41:22.023Z,2.63
2019-05-02T22:43:51.124Z,2.83
2019-05-02T22:46:38.050Z,2.87
2019-05-02T22:49:07.309Z,2.90
2019-05-02T22:51:36.519Z,2.43
2019-05-02T22:54:06.130Z,2.57
2019-05-02T22:56:35.641Z,2.87
2019-05-02T22:59:04.913Z,3.10
2019-05-02T23:01:34.457Z,2.70
2019-05-02T23:04:03.742Z,2.30
2019-05-02T23:06:32.972Z,2.03
2019-05-02T23:09:02.162Z,1.60
2019-05-02T23:11:32.979Z,1.90
2019-05-02T23:14:02.170Z,1.50
2019-05-02T23:16:32.267Z,1.47
2019-05-02T23:19:02.883Z,2.00
2019-05-02T23:21:32.629Z,1.60
2019-05-02T23:24:03.555Z,1.50
2019-05-02T23:26:51.917Z,1.40
2019-05-02T23:29:22.581Z,1.50
2019-05-02T23:31:51.929Z,1.30
2019-05-02T23:34:23.546Z,1.43
2019-05-02T23:36:52.455Z,1.23
2019-05-02T23:39:21.954Z,1.60
2019-05-02T23:41:52.489Z,1.20
2019-05-02T23:44:22.887Z,1.00
2019-05-02T23:46:52.137Z,1.40
2019-05-02T23:49:22.126Z,1.27
2019-05-02T23:51:51.309Z,1.20
2019-05-02T23:54:22.049Z,1.20
2019-05-02T23:56:51.573Z,1.00
2019-05-02T23:59:22.346Z,1.10
